Terminal Aerodrome Forecast
Issued by NWS

Home | Current Version | Previous Version | Text Only | Print | Product List | Glossary On
Versions: 1 2 3 4 5 6 7 8 9 10 11 12 13 14 15 16 17
000
FTUS43 KFGF 031900 AAA
TAFDVL
TAF AMD
KDVL 031950Z 0320/0418 32024G34KT P6SM BKN020
     FM032300 31018G23KT P6SM SCT250
     FM040200 30014KT P6SM SCT050
      AMD LTD TO CLD VIS AND WIND=

USA.gov is the U.S. government's official web portal to all federal, state and local government web resources and services.